sensor_id;sensor_type;location;lat;lon;timestamp;P1;durP1;ratioP1;P2;durP2;ratioP2
53401;SDS011;39295;45.534;20.034;2023-09-19T00:01:50;10.73;;;3.90;;
53401;SDS011;39295;45.534;20.034;2023-09-19T00:04:17;7.63;;;3.85;;
53401;SDS011;39295;45.534;20.034;2023-09-19T00:06:48;11.02;;;3.90;;
53401;SDS011;39295;45.534;20.034;2023-09-19T00:09:15;6.15;;;3.47;;
53401;SDS011;39295;45.534;20.034;2023-09-19T00:11:41;8.52;;;3.60;;
53401;SDS011;39295;45.534;20.034;2023-09-19T00:14:07;11.20;;;4.35;;
53401;SDS011;39295;45.534;20.034;2023-09-19T00:16:34;8.75;;;3.60;;
53401;SDS011;39295;45.534;20.034;2023-09-19T00:19:01;5.25;;;3.30;;
53401;SDS011;39295;45.534;20.034;2023-09-19T00:21:33;7.43;;;3.40;;
53401;SDS011;39295;45.534;20.034;2023-09-19T00:29:47;9.02;;;3.65;;
53401;SDS011;39295;45.534;20.034;2023-09-19T00:32:13;17.65;;;3.90;;
53401;SDS011;39295;45.534;20.034;2023-09-19T00:34:39;11.05;;;3.92;;
53401;SDS011;39295;45.534;20.034;2023-09-19T00:37:07;18.33;;;4.07;;
53401;SDS011;39295;45.534;20.034;2023-09-19T00:42:37;8.77;;;3.58;;
53401;SDS011;39295;45.534;20.034;2023-09-19T00:45:03;7.95;;;3.33;;
53401;SDS011;39295;45.534;20.034;2023-09-19T00:47:30;7.35;;;3.35;;
53401;SDS011;39295;45.534;20.034;2023-09-19T00:49:56;9.45;;;3.35;;
53401;SDS011;39295;45.534;20.034;2023-09-19T00:52:23;10.13;;;3.25;;
53401;SDS011;39295;45.534;20.034;2023-09-19T00:57:52;5.40;;;3.47;;
53401;SDS011;39295;45.534;20.034;2023-09-19T01:00:21;10.98;;;3.85;;
53401;SDS011;39295;45.534;20.034;2023-09-19T01:02:48;10.55;;;3.60;;
53401;SDS011;39295;45.534;20.034;2023-09-19T01:05:14;6.13;;;3.67;;
53401;SDS011;39295;45.534;20.034;2023-09-19T01:07:41;9.18;;;3.83;;
53401;SDS011;39295;45.534;20.034;2023-09-19T01:10:26;9.10;;;3.65;;
53401;SDS011;39295;45.534;20.034;2023-09-19T01:15:30;7.97;;;3.67;;
53401;SDS011;39295;45.534;20.034;2023-09-19T01:28:43;9.10;;;3.95;;
53401;SDS011;39295;45.534;20.034;2023-09-19T01:31:12;9.07;;;4.00;;
53401;SDS011;39295;45.534;20.034;2023-09-19T01:33:58;5.20;;;3.22;;
53401;SDS011;39295;45.534;20.034;2023-09-19T01:36:31;8.43;;;3.78;;
53401;SDS011;39295;45.534;20.034;2023-09-19T01:42:11;8.90;;;3.85;;
53401;SDS011;39295;45.534;20.034;2023-09-19T01:47:23;4.63;;;3.50;;
53401;SDS011;39295;45.534;20.034;2023-09-19T01:49:58;8.68;;;3.80;;
53401;SDS011;39295;45.534;20.034;2023-09-19T01:52:27;7.05;;;4.25;;
53401;SDS011;39295;45.534;20.034;2023-09-19T01:58:01;6.93;;;4.57;;
53401;SDS011;39295;45.534;20.034;2023-09-19T02:00:29;10.27;;;4.22;;
53401;SDS011;39295;45.534;20.034;2023-09-19T02:02:56;13.68;;;4.85;;
53401;SDS011;39295;45.534;20.034;2023-09-19T02:05:24;8.77;;;5.00;;
53401;SDS011;39295;45.534;20.034;2023-09-19T02:07:50;8.80;;;5.60;;
53401;SDS011;39295;45.534;20.034;2023-09-19T02:16:38;8.50;;;5.90;;
53401;SDS011;39295;45.534;20.034;2023-09-19T02:19:04;10.30;;;5.80;;
53401;SDS011;39295;45.534;20.034;2023-09-19T02:21:31;11.10;;;5.78;;
53401;SDS011;39295;45.534;20.034;2023-09-19T02:27:00;7.95;;;5.45;;
53401;SDS011;39295;45.534;20.034;2023-09-19T02:29:29;10.63;;;5.15;;
53401;SDS011;39295;45.534;20.034;2023-09-19T02:31:55;9.80;;;5.75;;
53401;SDS011;39295;45.534;20.034;2023-09-19T02:34:22;7.55;;;5.03;;
53401;SDS011;39295;45.534;20.034;2023-09-19T02:36:48;16.17;;;5.68;;
53401;SDS011;39295;45.534;20.034;2023-09-19T02:42:00;7.75;;;4.82;;
53401;SDS011;39295;45.534;20.034;2023-09-19T02:44:26;9.32;;;5.70;;
53401;SDS011;39295;45.534;20.034;2023-09-19T02:46:52;10.10;;;5.30;;
53401;SDS011;39295;45.534;20.034;2023-09-19T02:49:24;10.15;;;6.07;;
53401;SDS011;39295;45.534;20.034;2023-09-19T02:51:52;9.88;;;5.97;;
53401;SDS011;39295;45.534;20.034;2023-09-19T02:54:32;12.52;;;5.50;;
53401;SDS011;39295;45.534;20.034;2023-09-19T03:15:56;9.43;;;6.85;;
53401;SDS011;39295;45.534;20.034;2023-09-19T03:18:23;12.02;;;7.00;;
53401;SDS011;39295;45.534;20.034;2023-09-19T03:20:54;7.65;;;5.72;;
53401;SDS011;39295;45.534;20.034;2023-09-19T03:23:21;12.75;;;6.68;;
53401;SDS011;39295;45.534;20.034;2023-09-19T03:25:48;9.98;;;5.90;;
53401;SDS011;39295;45.534;20.034;2023-09-19T03:28:14;11.48;;;6.00;;
53401;SDS011;39295;45.534;20.034;2023-09-19T03:30:40;10.60;;;6.10;;
53401;SDS011;39295;45.534;20.034;2023-09-19T03:33:07;9.90;;;5.57;;
53401;SDS011;39295;45.534;20.034;2023-09-19T03:35:33;12.02;;;6.07;;
53401;SDS011;39295;45.534;20.034;2023-09-19T03:37:59;9.20;;;5.80;;
53401;SDS011;39295;45.534;20.034;2023-09-19T03:40:25;7.47;;;5.60;;
53401;SDS011;39295;45.534;20.034;2023-09-19T03:42:52;7.68;;;5.85;;
53401;SDS011;39295;45.534;20.034;2023-09-19T03:45:18;8.20;;;5.50;;
53401;SDS011;39295;45.534;20.034;2023-09-19T03:47:44;9.85;;;5.10;;
53401;SDS011;39295;45.534;20.034;2023-09-19T03:50:12;8.57;;;5.65;;
53401;SDS011;39295;45.534;20.034;2023-09-19T03:52:43;23.20;;;6.53;;
53401;SDS011;39295;45.534;20.034;2023-09-19T03:55:09;10.63;;;6.00;;
53401;SDS011;39295;45.534;20.034;2023-09-19T03:57:35;8.93;;;5.60;;
53401;SDS011;39295;45.534;20.034;2023-09-19T04:00:02;11.02;;;5.30;;
53401;SDS011;39295;45.534;20.034;2023-09-19T04:02:30;16.00;;;6.60;;
53401;SDS011;39295;45.534;20.034;2023-09-19T04:04:58;7.80;;;6.38;;
53401;SDS011;39295;45.534;20.034;2023-09-19T04:07:24;12.05;;;6.28;;
53401;SDS011;39295;45.534;20.034;2023-09-19T04:09:53;10.20;;;6.10;;
53401;SDS011;39295;45.534;20.034;2023-09-19T04:12:20;7.93;;;5.88;;
53401;SDS011;39295;45.534;20.034;2023-09-19T04:14:46;8.07;;;5.68;;
53401;SDS011;39295;45.534;20.034;2023-09-19T04:17:12;7.22;;;5.63;;
53401;SDS011;39295;45.534;20.034;2023-09-19T04:19:38;12.82;;;6.05;;
53401;SDS011;39295;45.534;20.034;2023-09-19T04:22:05;7.30;;;5.40;;
53401;SDS011;39295;45.534;20.034;2023-09-19T04:24:32;9.05;;;5.25;;
53401;SDS011;39295;45.534;20.034;2023-09-19T04:26:59;8.77;;;5.15;;
53401;SDS011;39295;45.534;20.034;2023-09-19T04:29:25;12.93;;;5.25;;
53401;SDS011;39295;45.534;20.034;2023-09-19T04:31:54;5.60;;;5.00;;
53401;SDS011;39295;45.534;20.034;2023-09-19T04:34:22;7.75;;;5.25;;
53401;SDS011;39295;45.534;20.034;2023-09-19T04:36:49;8.35;;;5.75;;
53401;SDS011;39295;45.534;20.034;2023-09-19T04:39:15;8.85;;;6.32;;
53401;SDS011;39295;45.534;20.034;2023-09-19T04:41:42;10.50;;;5.65;;
53401;SDS011;39295;45.534;20.034;2023-09-19T04:44:10;9.30;;;5.28;;
53401;SDS011;39295;45.534;20.034;2023-09-19T04:46:36;9.05;;;5.13;;
53401;SDS011;39295;45.534;20.034;2023-09-19T04:49:02;8.90;;;5.45;;
53401;SDS011;39295;45.534;20.034;2023-09-19T04:51:28;9.52;;;5.80;;
53401;SDS011;39295;45.534;20.034;2023-09-19T04:53:59;9.27;;;5.22;;
53401;SDS011;39295;45.534;20.034;2023-09-19T04:56:25;9.32;;;5.40;;
53401;SDS011;39295;45.534;20.034;2023-09-19T04:58:53;9.85;;;5.60;;
53401;SDS011;39295;45.534;20.034;2023-09-19T05:01:19;9.68;;;6.00;;
53401;SDS011;39295;45.534;20.034;2023-09-19T05:03:48;9.15;;;5.22;;
53401;SDS011;39295;45.534;20.034;2023-09-19T05:06:21;12.40;;;5.38;;
53401;SDS011;39295;45.534;20.034;2023-09-19T05:08:47;9.55;;;5.70;;
53401;SDS011;39295;45.534;20.034;2023-09-19T05:11:18;6.70;;;5.47;;
53401;SDS011;39295;45.534;20.034;2023-09-19T05:13:45;7.03;;;5.80;;
53401;SDS011;39295;45.534;20.034;2023-09-19T05:16:11;8.75;;;5.85;;
53401;SDS011;39295;45.534;20.034;2023-09-19T05:18:37;7.43;;;5.50;;
53401;SDS011;39295;45.534;20.034;2023-09-19T05:21:03;8.38;;;5.25;;
53401;SDS011;39295;45.534;20.034;2023-09-19T05:23:29;7.97;;;5.65;;
53401;SDS011;39295;45.534;20.034;2023-09-19T05:25:56;10.18;;;6.47;;
53401;SDS011;39295;45.534;20.034;2023-09-19T05:28:25;11.65;;;7.07;;
53401;SDS011;39295;45.534;20.034;2023-09-19T05:30:52;9.75;;;6.32;;
53401;SDS011;39295;45.534;20.034;2023-09-19T05:33:18;14.70;;;5.85;;
53401;SDS011;39295;45.534;20.034;2023-09-19T05:35:44;12.40;;;6.10;;
53401;SDS011;39295;45.534;20.034;2023-09-19T05:38:12;10.00;;;5.40;;
53401;SDS011;39295;45.534;20.034;2023-09-19T05:40:39;10.63;;;5.55;;
53401;SDS011;39295;45.534;20.034;2023-09-19T05:43:08;8.90;;;5.75;;
53401;SDS011;39295;45.534;20.034;2023-09-19T05:45:34;13.65;;;5.47;;
53401;SDS011;39295;45.534;20.034;2023-09-19T05:48:08;11.43;;;5.88;;
53401;SDS011;39295;45.534;20.034;2023-09-19T05:50:34;11.95;;;6.10;;
53401;SDS011;39295;45.534;20.034;2023-09-19T05:53:01;21.08;;;10.25;;
53401;SDS011;39295;45.534;20.034;2023-09-19T05:55:27;23.45;;;8.90;;
53401;SDS011;39295;45.534;20.034;2023-09-19T05:57:54;16.38;;;6.60;;
53401;SDS011;39295;45.534;20.034;2023-09-19T06:00:21;9.55;;;5.63;;
53401;SDS011;39295;45.534;20.034;2023-09-19T06:02:54;8.65;;;5.90;;
53401;SDS011;39295;45.534;20.034;2023-09-19T06:05:21;9.10;;;5.85;;
53401;SDS011;39295;45.534;20.034;2023-09-19T06:07:52;8.95;;;5.68;;
53401;SDS011;39295;45.534;20.034;2023-09-19T06:10:19;9.23;;;5.35;;
53401;SDS011;39295;45.534;20.034;2023-09-19T06:12:48;10.23;;;4.95;;
53401;SDS011;39295;45.534;20.034;2023-09-19T06:15:14;10.82;;;5.63;;
53401;SDS011;39295;45.534;20.034;2023-09-19T06:17:47;11.20;;;5.40;;
53401;SDS011;39295;45.534;20.034;2023-09-19T06:20:13;10.70;;;5.80;;
53401;SDS011;39295;45.534;20.034;2023-09-19T06:22:44;9.70;;;5.47;;
53401;SDS011;39295;45.534;20.034;2023-09-19T06:25:11;10.57;;;5.83;;
53401;SDS011;39295;45.534;20.034;2023-09-19T06:27:40;10.93;;;5.97;;
53401;SDS011;39295;45.534;20.034;2023-09-19T06:30:08;11.93;;;7.18;;
53401;SDS011;39295;45.534;20.034;2023-09-19T06:32:34;10.70;;;5.85;;
53401;SDS011;39295;45.534;20.034;2023-09-19T06:35:00;13.30;;;6.13;;
53401;SDS011;39295;45.534;20.034;2023-09-19T06:37:28;15.40;;;6.18;;
53401;SDS011;39295;45.534;20.034;2023-09-19T06:39:55;15.77;;;6.25;;
53401;SDS011;39295;45.534;20.034;2023-09-19T06:42:22;13.38;;;5.80;;
53401;SDS011;39295;45.534;20.034;2023-09-19T06:44:48;17.38;;;6.28;;
53401;SDS011;39295;45.534;20.034;2023-09-19T06:47:14;19.73;;;6.20;;
53401;SDS011;39295;45.534;20.034;2023-09-19T06:49:41;11.88;;;5.53;;
53401;SDS011;39295;45.534;20.034;2023-09-19T06:52:10;12.43;;;5.88;;
53401;SDS011;39295;45.534;20.034;2023-09-19T06:54:36;11.30;;;5.70;;
53401;SDS011;39295;45.534;20.034;2023-09-19T06:57:02;11.68;;;5.68;;
53401;SDS011;39295;45.534;20.034;2023-09-19T06:59:29;11.18;;;5.70;;
53401;SDS011;39295;45.534;20.034;2023-09-19T07:01:57;9.95;;;6.15;;
53401;SDS011;39295;45.534;20.034;2023-09-19T07:04:24;8.45;;;5.70;;
53401;SDS011;39295;45.534;20.034;2023-09-19T07:06:50;12.10;;;6.00;;
53401;SDS011;39295;45.534;20.034;2023-09-19T07:12:19;7.93;;;5.10;;
53401;SDS011;39295;45.534;20.034;2023-09-19T07:14:45;11.27;;;5.57;;
53401;SDS011;39295;45.534;20.034;2023-09-19T07:17:11;11.02;;;5.30;;
53401;SDS011;39295;45.534;20.034;2023-09-19T07:19:38;13.48;;;5.63;;
53401;SDS011;39295;45.534;20.034;2023-09-19T07:32:55;10.52;;;6.07;;
53401;SDS011;39295;45.534;20.034;2023-09-19T07:35:21;13.07;;;5.97;;
53401;SDS011;39295;45.534;20.034;2023-09-19T07:41:04;11.43;;;6.20;;
53401;SDS011;39295;45.534;20.034;2023-09-19T07:43:30;14.40;;;5.90;;
53401;SDS011;39295;45.534;20.034;2023-09-19T07:46:05;9.30;;;5.60;;
53401;SDS011;39295;45.534;20.034;2023-09-19T07:48:33;12.68;;;6.15;;
53401;SDS011;39295;45.534;20.034;2023-09-19T07:51:04;10.05;;;5.85;;
53401;SDS011;39295;45.534;20.034;2023-09-19T07:53:31;9.90;;;5.43;;
53401;SDS011;39295;45.534;20.034;2023-09-19T07:56:03;16.33;;;5.43;;
53401;SDS011;39295;45.534;20.034;2023-09-19T07:58:29;17.20;;;5.78;;
53401;SDS011;39295;45.534;20.034;2023-09-19T08:00:56;15.05;;;5.80;;
53401;SDS011;39295;45.534;20.034;2023-09-19T08:03:22;10.70;;;5.38;;
53401;SDS011;39295;45.534;20.034;2023-09-19T08:09:04;12.02;;;6.75;;
53401;SDS011;39295;45.534;20.034;2023-09-19T08:11:34;17.08;;;6.53;;
53401;SDS011;39295;45.534;20.034;2023-09-19T08:14:00;14.65;;;6.20;;
53401;SDS011;39295;45.534;20.034;2023-09-19T08:16:26;10.30;;;5.80;;
53401;SDS011;39295;45.534;20.034;2023-09-19T08:18:52;12.07;;;6.07;;
53401;SDS011;39295;45.534;20.034;2023-09-19T08:21:38;9.95;;;5.35;;
53401;SDS011;39295;45.534;20.034;2023-09-19T08:24:04;12.68;;;5.85;;
53401;SDS011;39295;45.534;20.034;2023-09-19T08:26:31;14.00;;;6.20;;
53401;SDS011;39295;45.534;20.034;2023-09-19T08:28:57;14.23;;;5.72;;
53401;SDS011;39295;45.534;20.034;2023-09-19T08:31:27;15.13;;;6.10;;
53401;SDS011;39295;45.534;20.034;2023-09-19T08:33:56;11.35;;;5.90;;
53401;SDS011;39295;45.534;20.034;2023-09-19T08:42:52;15.50;;;6.10;;
53401;SDS011;39295;45.534;20.034;2023-09-19T08:45:22;15.95;;;6.25;;
53401;SDS011;39295;45.534;20.034;2023-09-19T08:50:43;16.80;;;6.47;;
53401;SDS011;39295;45.534;20.034;2023-09-19T08:53:34;15.02;;;6.10;;
53401;SDS011;39295;45.534;20.034;2023-09-19T08:56:06;14.07;;;6.18;;
53401;SDS011;39295;45.534;20.034;2023-09-19T08:58:43;16.83;;;6.07;;
53401;SDS011;39295;45.534;20.034;2023-09-19T09:01:14;19.17;;;6.13;;
53401;SDS011;39295;45.534;20.034;2023-09-19T09:03:47;18.63;;;6.30;;
53401;SDS011;39295;45.534;20.034;2023-09-19T09:06:23;17.08;;;6.00;;
53401;SDS011;39295;45.534;20.034;2023-09-19T09:08:52;12.30;;;5.30;;
53401;SDS011;39295;45.534;20.034;2023-09-19T09:11:22;16.40;;;6.57;;
53401;SDS011;39295;45.534;20.034;2023-09-19T09:14:00;16.63;;;5.93;;
53401;SDS011;39295;45.534;20.034;2023-09-19T09:16:26;18.55;;;5.82;;
53401;SDS011;39295;45.534;20.034;2023-09-19T09:19:02;18.85;;;5.53;;
53401;SDS011;39295;45.534;20.034;2023-09-19T09:21:31;18.75;;;5.80;;
53401;SDS011;39295;45.534;20.034;2023-09-19T09:26:46;19.50;;;5.93;;
53401;SDS011;39295;45.534;20.034;2023-09-19T09:29:14;21.90;;;6.10;;
53401;SDS011;39295;45.534;20.034;2023-09-19T09:31:43;31.13;;;6.15;;
53401;SDS011;39295;45.534;20.034;2023-09-19T09:34:10;25.80;;;5.50;;
53401;SDS011;39295;45.534;20.034;2023-09-19T09:36:39;23.38;;;5.65;;
53401;SDS011;39295;45.534;20.034;2023-09-19T09:39:09;31.92;;;6.38;;
53401;SDS011;39295;45.534;20.034;2023-09-19T09:41:51;31.95;;;6.35;;
53401;SDS011;39295;45.534;20.034;2023-09-19T09:44:20;35.45;;;6.18;;
53401;SDS011;39295;45.534;20.034;2023-09-19T09:46:57;25.30;;;5.72;;
53401;SDS011;39295;45.534;20.034;2023-09-19T09:49:52;29.83;;;6.68;;
53401;SDS011;39295;45.534;20.034;2023-09-19T09:52:49;36.67;;;6.60;;
53401;SDS011;39295;45.534;20.034;2023-09-19T09:58:37;47.03;;;8.23;;
53401;SDS011;39295;45.534;20.034;2023-09-19T10:01:09;37.40;;;7.22;;
53401;SDS011;39295;45.534;20.034;2023-09-19T10:03:48;26.52;;;7.28;;
53401;SDS011;39295;45.534;20.034;2023-09-19T10:06:21;33.15;;;7.80;;
53401;SDS011;39295;45.534;20.034;2023-09-19T10:09:11;37.92;;;7.60;;
53401;SDS011;39295;45.534;20.034;2023-09-19T10:12:03;29.55;;;7.35;;
53401;SDS011;39295;45.534;20.034;2023-09-19T10:14:45;33.60;;;7.70;;
53401;SDS011;39295;45.534;20.034;2023-09-19T10:17:33;37.35;;;8.30;;
53401;SDS011;39295;45.534;20.034;2023-09-19T10:20:02;40.63;;;8.88;;
53401;SDS011;39295;45.534;20.034;2023-09-19T10:22:42;39.95;;;8.75;;
53401;SDS011;39295;45.534;20.034;2023-09-19T10:25:22;29.17;;;9.48;;
53401;SDS011;39295;45.534;20.034;2023-09-19T10:27:49;40.38;;;8.75;;
53401;SDS011;39295;45.534;20.034;2023-09-19T10:30:16;32.67;;;9.40;;
53401;SDS011;39295;45.534;20.034;2023-09-19T10:32:43;27.67;;;7.18;;
53401;SDS011;39295;45.534;20.034;2023-09-19T10:35:12;28.75;;;8.27;;
53401;SDS011;39295;45.534;20.034;2023-09-19T10:37:39;26.85;;;7.53;;
53401;SDS011;39295;45.534;20.034;2023-09-19T10:40:06;26.85;;;7.03;;
53401;SDS011;39295;45.534;20.034;2023-09-19T10:42:40;27.00;;;6.85;;
53401;SDS011;39295;45.534;20.034;2023-09-19T10:45:08;21.15;;;5.97;;
53401;SDS011;39295;45.534;20.034;2023-09-19T10:47:38;29.10;;;5.37;;
53401;SDS011;39295;45.534;20.034;2023-09-19T10:50:05;18.52;;;4.82;;
53401;SDS011;39295;45.534;20.034;2023-09-19T10:52:38;22.15;;;5.10;;
53401;SDS011;39295;45.534;20.034;2023-09-19T10:55:06;23.85;;;4.80;;
53401;SDS011;39295;45.534;20.034;2023-09-19T10:57:34;18.63;;;3.97;;
53401;SDS011;39295;45.534;20.034;2023-09-19T11:00:04;16.58;;;4.03;;
53401;SDS011;39295;45.534;20.034;2023-09-19T11:09:02;14.95;;;4.57;;
53401;SDS011;39295;45.534;20.034;2023-09-19T11:14:13;18.75;;;3.47;;
53401;SDS011;39295;45.534;20.034;2023-09-19T11:16:39;16.10;;;3.42;;
53401;SDS011;39295;45.534;20.034;2023-09-19T11:19:06;12.88;;;3.40;;
53401;SDS011;39295;45.534;20.034;2023-09-19T11:26:41;14.38;;;3.60;;
53401;SDS011;39295;45.534;20.034;2023-09-19T11:29:28;17.50;;;3.25;;
53401;SDS011;39295;45.534;20.034;2023-09-19T11:31:55;15.07;;;3.28;;
53401;SDS011;39295;45.534;20.034;2023-09-19T11:34:42;11.32;;;3.00;;
53401;SDS011;39295;45.534;20.034;2023-09-19T11:39:37;11.82;;;3.22;;
53401;SDS011;39295;45.534;20.034;2023-09-19T11:44:48;11.50;;;2.63;;
53401;SDS011;39295;45.534;20.034;2023-09-19T11:47:16;12.23;;;3.33;;
53401;SDS011;39295;45.534;20.034;2023-09-19T11:49:44;11.43;;;2.35;;
53401;SDS011;39295;45.534;20.034;2023-09-19T11:52:10;9.80;;;2.17;;
53401;SDS011;39295;45.534;20.034;2023-09-19T11:54:39;6.38;;;1.83;;
53401;SDS011;39295;45.534;20.034;2023-09-19T11:57:06;10.48;;;2.53;;
53401;SDS011;39295;45.534;20.034;2023-09-19T11:59:33;9.93;;;2.33;;
53401;SDS011;39295;45.534;20.034;2023-09-19T12:02:04;7.80;;;2.27;;
53401;SDS011;39295;45.534;20.034;2023-09-19T12:04:35;8.38;;;2.30;;
53401;SDS011;39295;45.534;20.034;2023-09-19T12:07:13;6.18;;;1.88;;
53401;SDS011;39295;45.534;20.034;2023-09-19T12:09:50;10.82;;;2.00;;
53401;SDS011;39295;45.534;20.034;2023-09-19T12:12:28;11.27;;;1.88;;
53401;SDS011;39295;45.534;20.034;2023-09-19T12:14:55;13.35;;;2.25;;
53401;SDS011;39295;45.534;20.034;2023-09-19T12:17:37;7.15;;;1.40;;
53401;SDS011;39295;45.534;20.034;2023-09-19T12:20:04;7.53;;;1.65;;
53401;SDS011;39295;45.534;20.034;2023-09-19T12:22:40;7.57;;;1.67;;
53401;SDS011;39295;45.534;20.034;2023-09-19T12:25:08;13.80;;;1.90;;
53401;SDS011;39295;45.534;20.034;2023-09-19T12:27:46;4.45;;;1.48;;
53401;SDS011;39295;45.534;20.034;2023-09-19T12:30:13;8.00;;;1.40;;
53401;SDS011;39295;45.534;20.034;2023-09-19T12:32:40;6.00;;;1.85;;
53401;SDS011;39295;45.534;20.034;2023-09-19T12:35:07;5.22;;;1.60;;
53401;SDS011;39295;45.534;20.034;2023-09-19T12:37:36;6.80;;;1.55;;
53401;SDS011;39295;45.534;20.034;2023-09-19T12:40:06;4.63;;;1.40;;
53401;SDS011;39295;45.534;20.034;2023-09-19T12:42:40;7.18;;;1.48;;
53401;SDS011;39295;45.534;20.034;2023-09-19T12:45:07;4.00;;;1.40;;
53401;SDS011;39295;45.534;20.034;2023-09-19T12:47:34;5.22;;;1.40;;
53401;SDS011;39295;45.534;20.034;2023-09-19T12:50:10;5.00;;;2.08;;
53401;SDS011;39295;45.534;20.034;2023-09-19T12:52:49;3.90;;;1.33;;
53401;SDS011;39295;45.534;20.034;2023-09-19T12:55:25;6.72;;;1.23;;
53401;SDS011;39295;45.534;20.034;2023-09-19T13:00:40;7.20;;;1.63;;
53401;SDS011;39295;45.534;20.034;2023-09-19T13:03:25;2.42;;;1.00;;
53401;SDS011;39295;45.534;20.034;2023-09-19T13:05:54;4.00;;;1.17;;
53401;SDS011;39295;45.534;20.034;2023-09-19T13:11:24;5.68;;;1.40;;
53401;SDS011;39295;45.534;20.034;2023-09-19T13:14:23;3.63;;;1.30;;
53401;SDS011;39295;45.534;20.034;2023-09-19T13:16:59;5.63;;;1.20;;
53401;SDS011;39295;45.534;20.034;2023-09-19T13:19:39;5.38;;;1.70;;
53401;SDS011;39295;45.534;20.034;2023-09-19T13:24:51;3.85;;;1.35;;
53401;SDS011;39295;45.534;20.034;2023-09-19T13:27:17;5.78;;;1.30;;
53401;SDS011;39295;45.534;20.034;2023-09-19T13:29:43;3.97;;;1.30;;
53401;SDS011;39295;45.534;20.034;2023-09-19T13:32:09;5.75;;;1.33;;
53401;SDS011;39295;45.534;20.034;2023-09-19T13:34:36;4.57;;;1.27;;
53401;SDS011;39295;45.534;20.034;2023-09-19T13:37:03;6.55;;;1.65;;
53401;SDS011;39295;45.534;20.034;2023-09-19T13:39:29;2.47;;;1.02;;
53401;SDS011;39295;45.534;20.034;2023-09-19T13:41:55;3.10;;;1.20;;
53401;SDS011;39295;45.534;20.034;2023-09-19T13:44:30;2.58;;;1.00;;
53401;SDS011;39295;45.534;20.034;2023-09-19T13:47:08;7.13;;;1.30;;
53401;SDS011;39295;45.534;20.034;2023-09-19T13:49:35;10.35;;;1.80;;
53401;SDS011;39295;45.534;20.034;2023-09-19T13:52:03;7.88;;;1.20;;
53401;SDS011;39295;45.534;20.034;2023-09-19T13:54:30;4.35;;;1.00;;
53401;SDS011;39295;45.534;20.034;2023-09-19T13:56:56;7.55;;;0.90;;
53401;SDS011;39295;45.534;20.034;2023-09-19T13:59:23;5.18;;;1.10;;
53401;SDS011;39295;45.534;20.034;2023-09-19T14:01:49;7.07;;;1.20;;
53401;SDS011;39295;45.534;20.034;2023-09-19T14:04:19;7.30;;;1.20;;
53401;SDS011;39295;45.534;20.034;2023-09-19T14:09:50;6.25;;;1.10;;
53401;SDS011;39295;45.534;20.034;2023-09-19T14:12:16;7.18;;;0.90;;
53401;SDS011;39295;45.534;20.034;2023-09-19T14:14:42;2.83;;;0.90;;
53401;SDS011;39295;45.534;20.034;2023-09-19T14:17:10;4.88;;;1.10;;
53401;SDS011;39295;45.534;20.034;2023-09-19T14:19:36;3.90;;;1.20;;
53401;SDS011;39295;45.534;20.034;2023-09-19T14:22:03;4.68;;;1.10;;
53401;SDS011;39295;45.534;20.034;2023-09-19T14:24:32;4.65;;;0.95;;
53401;SDS011;39295;45.534;20.034;2023-09-19T14:26:59;2.83;;;1.00;;
53401;SDS011;39295;45.534;20.034;2023-09-19T14:29:25;9.70;;;1.15;;
53401;SDS011;39295;45.534;20.034;2023-09-19T14:31:51;4.93;;;1.05;;
53401;SDS011;39295;45.534;20.034;2023-09-19T14:34:17;2.50;;;1.00;;
53401;SDS011;39295;45.534;20.034;2023-09-19T14:37:03;6.80;;;1.00;;
53401;SDS011;39295;45.534;20.034;2023-09-19T14:39:29;5.55;;;1.70;;
53401;SDS011;39295;45.534;20.034;2023-09-19T15:04:59;4.35;;;1.30;;
53401;SDS011;39295;45.534;20.034;2023-09-19T15:07:28;9.82;;;2.08;;
53401;SDS011;39295;45.534;20.034;2023-09-19T15:09:54;5.68;;;1.40;;
53401;SDS011;39295;45.534;20.034;2023-09-19T15:12:20;5.25;;;1.50;;
53401;SDS011;39295;45.534;20.034;2023-09-19T15:14:46;12.18;;;1.40;;
53401;SDS011;39295;45.534;20.034;2023-09-19T15:17:12;8.13;;;1.70;;
53401;SDS011;39295;45.534;20.034;2023-09-19T15:19:40;8.27;;;1.25;;
53401;SDS011;39295;45.534;20.034;2023-09-19T15:22:06;4.22;;;1.25;;
53401;SDS011;39295;45.534;20.034;2023-09-19T15:24:32;2.55;;;1.15;;
53401;SDS011;39295;45.534;20.034;2023-09-19T15:26:58;7.32;;;1.00;;
53401;SDS011;39295;45.534;20.034;2023-09-19T15:29:24;7.20;;;1.58;;
53401;SDS011;39295;45.534;20.034;2023-09-19T15:31:51;4.72;;;1.27;;
53401;SDS011;39295;45.534;20.034;2023-09-19T15:34:17;6.18;;;1.08;;
53401;SDS011;39295;45.534;20.034;2023-09-19T15:36:43;3.97;;;1.23;;
53401;SDS011;39295;45.534;20.034;2023-09-19T15:39:09;7.28;;;1.20;;
53401;SDS011;39295;45.534;20.034;2023-09-19T15:41:41;3.75;;;1.20;;
53401;SDS011;39295;45.534;20.034;2023-09-19T15:44:11;2.22;;;1.05;;
53401;SDS011;39295;45.534;20.034;2023-09-19T15:46:40;4.72;;;0.95;;
53401;SDS011;39295;45.534;20.034;2023-09-19T15:49:07;4.55;;;1.05;;
53401;SDS011;39295;45.534;20.034;2023-09-19T15:51:33;6.60;;;1.25;;
53401;SDS011;39295;45.534;20.034;2023-09-19T15:54:01;4.97;;;1.02;;
53401;SDS011;39295;45.534;20.034;2023-09-19T15:56:27;3.80;;;1.00;;
53401;SDS011;39295;45.534;20.034;2023-09-19T15:58:54;4.28;;;0.90;;
53401;SDS011;39295;45.534;20.034;2023-09-19T16:01:21;6.50;;;0.98;;
53401;SDS011;39295;45.534;20.034;2023-09-19T16:03:51;5.55;;;1.00;;
53401;SDS011;39295;45.534;20.034;2023-09-19T16:06:19;5.38;;;0.90;;
53401;SDS011;39295;45.534;20.034;2023-09-19T16:08:48;11.80;;;1.73;;
53401;SDS011;39295;45.534;20.034;2023-09-19T16:11:17;2.88;;;1.00;;
53401;SDS011;39295;45.534;20.034;2023-09-19T16:13:46;6.25;;;1.40;;
53401;SDS011;39295;45.534;20.034;2023-09-19T16:16:13;2.97;;;1.13;;
53401;SDS011;39295;45.534;20.034;2023-09-19T16:18:53;5.03;;;1.05;;
53401;SDS011;39295;45.534;20.034;2023-09-19T16:21:24;5.47;;;1.10;;
53401;SDS011;39295;45.534;20.034;2023-09-19T16:23:54;21.77;;;3.40;;
53401;SDS011;39295;45.534;20.034;2023-09-19T16:26:21;6.70;;;1.15;;
53401;SDS011;39295;45.534;20.034;2023-09-19T16:28:52;4.00;;;1.05;;
53401;SDS011;39295;45.534;20.034;2023-09-19T16:31:18;3.30;;;0.95;;
53401;SDS011;39295;45.534;20.034;2023-09-19T16:33:45;6.63;;;1.25;;
53401;SDS011;39295;45.534;20.034;2023-09-19T16:36:12;8.20;;;1.00;;
53401;SDS011;39295;45.534;20.034;2023-09-19T16:38:39;10.43;;;1.40;;
53401;SDS011;39295;45.534;20.034;2023-09-19T16:41:05;9.52;;;1.48;;
53401;SDS011;39295;45.534;20.034;2023-09-19T16:43:33;3.58;;;1.13;;
53401;SDS011;39295;45.534;20.034;2023-09-19T16:48:29;6.45;;;1.20;;
53401;SDS011;39295;45.534;20.034;2023-09-19T16:50:59;4.73;;;1.00;;
53401;SDS011;39295;45.534;20.034;2023-09-19T16:53:28;5.25;;;1.30;;
53401;SDS011;39295;45.534;20.034;2023-09-19T16:55:54;6.40;;;1.27;;
53401;SDS011;39295;45.534;20.034;2023-09-19T16:58:22;8.77;;;1.20;;
53401;SDS011;39295;45.534;20.034;2023-09-19T17:00:48;2.38;;;1.27;;
53401;SDS011;39295;45.534;20.034;2023-09-19T17:03:14;4.43;;;1.00;;
53401;SDS011;39295;45.534;20.034;2023-09-19T17:05:40;5.57;;;1.08;;
53401;SDS011;39295;45.534;20.034;2023-09-19T17:08:06;5.55;;;1.10;;
53401;SDS011;39295;45.534;20.034;2023-09-19T17:10:33;4.15;;;0.93;;
53401;SDS011;39295;45.534;20.034;2023-09-19T17:13:00;5.85;;;1.00;;
53401;SDS011;39295;45.534;20.034;2023-09-19T17:15:26;7.72;;;1.02;;
53401;SDS011;39295;45.534;20.034;2023-09-19T17:17:52;5.82;;;1.48;;